createdAt,value
2022-08-20T00:00:28.385Z,16.26
2022-08-20T00:02:57.479Z,16.26
2022-08-20T00:05:27.906Z,16.28
2022-08-20T00:07:55.093Z,16.30
2022-08-20T00:10:22.962Z,16.35
2022-08-20T00:12:51.134Z,16.36
2022-08-20T00:15:21.623Z,16.38
2022-08-20T00:17:52.390Z,16.36
2022-08-20T00:20:22.534Z,16.44
2022-08-20T00:22:48.985Z,16.47
2022-08-20T00:25:16.616Z,16.61
2022-08-20T00:27:42.988Z,16.67
2022-08-20T00:30:12.017Z,16.69
2022-08-20T00:32:53.698Z,16.71
2022-08-20T00:35:23.625Z,16.75
2022-08-20T00:37:50.633Z,16.82
2022-08-20T00:40:23.350Z,16.91
2022-08-20T00:42:58.011Z,16.99
2022-08-20T00:45:28.413Z,17.02
2022-08-20T00:47:57.775Z,17.03
2022-08-20T00:50:34.003Z,17.00
2022-08-20T00:53:02.729Z,17.06
2022-08-20T00:55:31.761Z,17.17
2022-08-20T00:58:05.289Z,17.21
2022-08-20T01:00:45.211Z,17.27
2022-08-20T01:03:15.669Z,17.23
2022-08-20T01:05:45.362Z,17.26
2022-08-20T01:08:12.395Z,17.24
2022-08-20T01:10:42.247Z,17.27
2022-08-20T01:13:12.451Z,17.24
2022-08-20T01:15:43.504Z,17.32
2022-08-20T01:18:20.186Z,17.23
2022-08-20T01:20:54.363Z,17.21
2022-08-20T01:23:36.444Z,17.21
2022-08-20T01:26:13.772Z,17.17
2022-08-20T01:28:54.579Z,17.20
2022-08-20T01:31:24.923Z,17.21
2022-08-20T01:33:53.060Z,17.14
2022-08-20T01:36:26.091Z,17.13
2022-08-20T01:38:54.083Z,17.18
2022-08-20T01:41:41.658Z,17.11
2022-08-20T01:44:10.962Z,17.14
2022-08-20T01:46:45.129Z,17.11
2022-08-20T01:49:21.137Z,17.09
2022-08-20T01:51:52.416Z,17.04
2022-08-20T01:54:19.010Z,17.02
2022-08-20T01:57:00.215Z,17.03
2022-08-20T01:59:27.619Z,17.09
2022-08-20T02:01:55.088Z,17.07
2022-08-20T02:04:22.343Z,17.06
2022-08-20T02:06:56.280Z,17.05
2022-08-20T02:09:24.149Z,17.06
2022-08-20T02:11:50.582Z,17.07
2022-08-20T02:14:17.011Z,17.08
2022-08-20T02:16:54.564Z,17.13
2022-08-20T02:19:45.356Z,17.14
2022-08-20T02:22:23.627Z,17.15
2022-08-20T02:24:51.272Z,17.18
2022-08-20T02:27:18.830Z,17.19
2022-08-20T02:29:45.719Z,17.20
2022-08-20T02:32:24.902Z,17.15
2022-08-20T02:34:58.859Z,17.05
2022-08-20T02:37:25.233Z,17.02
2022-08-20T02:39:51.687Z,16.99
2022-08-20T02:42:18.176Z,17.00
2022-08-20T02:44:44.594Z,17.03
2022-08-20T02:47:10.956Z,16.98
2022-08-20T02:49:37.585Z,17.04
2022-08-20T02:52:04.713Z,16.97
2022-08-20T02:54:31.168Z,16.88
2022-08-20T02:56:57.592Z,16.92
2022-08-20T02:59:24.048Z,16.96
2022-08-20T03:01:59.420Z,17.04
2022-08-20T03:04:29.192Z,17.07
2022-08-20T03:06:56.209Z,17.09
2022-08-20T03:09:22.704Z,16.99
2022-08-20T03:11:49.245Z,16.98
2022-08-20T03:14:15.655Z,16.98
2022-08-20T03:16:43.150Z,17.01
2022-08-20T03:19:09.586Z,17.03
2022-08-20T03:21:36.018Z,16.97
2022-08-20T03:24:02.585Z,16.94
2022-08-20T03:26:28.967Z,16.90
2022-08-20T03:28:55.348Z,16.79
2022-08-20T03:31:21.830Z,16.65
2022-08-20T03:33:48.914Z,16.67
2022-08-20T03:36:22.056Z,16.72
2022-08-20T03:38:55.296Z,16.75
2022-08-20T03:41:21.823Z,16.79
2022-08-20T03:43:48.172Z,16.80
2022-08-20T03:46:23.040Z,16.82
2022-08-20T03:48:59.567Z,16.81
2022-08-20T03:51:30.982Z,16.84
2022-08-20T03:53:58.225Z,16.85
2022-08-20T03:56:25.547Z,16.84
2022-08-20T03:58:52.257Z,16.84
2022-08-20T04:01:37.114Z,16.85
2022-08-20T04:04:05.087Z,16.90
2022-08-20T04:06:31.793Z,16.90
2022-08-20T04:08:58.349Z,16.90
2022-08-20T04:11:24.811Z,16.92
2022-08-20T04:13:51.387Z,17.03
2022-08-20T04:16:19.334Z,17.05
2022-08-20T04:18:56.215Z,17.05
2022-08-20T04:21:33.071Z,17.05
2022-08-20T04:24:01.051Z,17.10
2022-08-20T04:26:27.713Z,17.15
2022-08-20T04:28:55.341Z,17.16
2022-08-20T04:31:25.349Z,17.17
2022-08-20T04:33:52.379Z,17.16
2022-08-20T04:36:18.773Z,17.13
2022-08-20T04:38:50.117Z,17.12
2022-08-20T04:41:22.572Z,17.12
2022-08-20T04:43:53.532Z,17.14
2022-08-20T04:46:21.746Z,17.14
2022-08-20T04:48:48.983Z,17.15
2022-08-20T04:51:18.049Z,17.21
2022-08-20T04:53:45.130Z,17.26
2022-08-20T04:56:23.147Z,17.31
2022-08-20T04:58:51.196Z,17.25
2022-08-20T05:01:17.902Z,17.29
2022-08-20T05:03:45.860Z,17.34
2022-08-20T05:06:12.395Z,17.34
2022-08-20T05:08:39.788Z,17.35
2022-08-20T05:11:33.669Z,17.42
2022-08-20T05:13:55.693Z,17.42
2022-08-20T05:16:24.427Z,17.43
2022-08-20T05:18:52.434Z,17.48
2022-08-20T05:21:20.992Z,17.52
2022-08-20T05:23:48.994Z,17.55
2022-08-20T05:26:15.894Z,17.66
2022-08-20T05:28:52.709Z,17.78
2022-08-20T05:31:32.261Z,17.91
2022-08-20T05:34:09.240Z,17.98
2022-08-20T05:36:36.802Z,18.09
2022-08-20T05:39:03.463Z,18.24
2022-08-20T05:41:30.430Z,18.28
2022-08-20T05:44:01.007Z,18.32
2022-08-20T05:46:28.446Z,18.32
2022-08-20T05:48:54.839Z,18.29
2022-08-20T05:51:26.097Z,18.32
2022-08-20T05:53:52.515Z,18.34
2022-08-20T05:56:18.927Z,18.31
2022-08-20T05:58:47.781Z,18.41
2022-08-20T06:01:17.690Z,18.42
2022-08-20T06:04:19.382Z,18.45
2022-08-20T06:06:47.501Z,18.47
2022-08-20T06:09:31.396Z,18.39
2022-08-20T06:12:03.947Z,18.42
2022-08-20T06:14:31.371Z,18.44
2022-08-20T06:17:10.846Z,18.52
2022-08-20T06:19:40.615Z,18.44
2022-08-20T06:22:19.083Z,18.53
2022-08-20T06:24:53.909Z,18.68
2022-08-20T06:27:20.926Z,18.93
2022-08-20T06:29:48.015Z,18.99
2022-08-20T06:32:14.829Z,19.04
2022-08-20T06:34:50.496Z,19.26
2022-08-20T06:37:25.987Z,19.29
2022-08-20T06:40:03.153Z,19.31
2022-08-20T06:42:29.650Z,19.08
2022-08-20T06:44:56.006Z,19.07
2022-08-20T06:47:22.662Z,19.07
2022-08-20T06:49:49.069Z,18.92
2022-08-20T06:52:16.939Z,19.04
2022-08-20T06:54:44.588Z,19.20
2022-08-20T06:57:10.957Z,19.24
2022-08-20T06:59:37.358Z,19.32
2022-08-20T07:02:04.514Z,19.34
2022-08-20T07:04:30.860Z,19.12
2022-08-20T07:06:57.657Z,18.99
2022-08-20T07:09:26.294Z,19.09
2022-08-20T07:11:52.934Z,19.15
2022-08-20T07:14:19.740Z,19.18
2022-08-20T07:16:47.266Z,19.09
2022-08-20T07:19:14.194Z,19.17
2022-08-20T07:21:40.588Z,19.10
2022-08-20T07:24:07.158Z,19.25
2022-08-20T07:26:34.424Z,19.41
2022-08-20T07:29:01.241Z,19.50
2022-08-20T07:31:46.764Z,19.59
2022-08-20T07:34:14.754Z,19.69
2022-08-20T07:36:41.337Z,19.64
2022-08-20T07:39:07.746Z,19.76
2022-08-20T07:41:35.916Z,19.91
2022-08-20T07:44:02.538Z,19.87
2022-08-20T07:46:31.635Z,19.80
2022-08-20T07:48:58.346Z,19.84
2022-08-20T07:51:24.824Z,20.00
2022-08-20T07:53:51.934Z,20.16
2022-08-20T07:56:21.576Z,20.46
2022-08-20T07:58:52.081Z,20.48
2022-08-20T08:01:26.074Z,20.55
2022-08-20T08:03:52.851Z,20.65
2022-08-20T08:06:29.098Z,20.64
2022-08-20T08:09:11.354Z,20.78
2022-08-20T08:11:46.337Z,21.03
2022-08-20T08:14:14.362Z,20.86
2022-08-20T08:16:45.239Z,20.90
2022-08-20T08:19:14.640Z,21.06
2022-08-20T08:21:41.307Z,21.35
2022-08-20T08:24:07.720Z,21.32
2022-08-20T08:26:34.180Z,21.35
2022-08-20T08:29:00.535Z,21.53
2022-08-20T08:31:27.073Z,21.41
2022-08-20T08:33:53.486Z,21.32
2022-08-20T08:36:20.204Z,21.06
2022-08-20T08:38:46.923Z,20.92
2022-08-20T08:41:31.657Z,21.08
2022-08-20T08:44:10.410Z,21.49
2022-08-20T08:46:41.677Z,21.54
2022-08-20T08:49:12.657Z,21.53
2022-08-20T08:51:47.747Z,21.31
2022-08-20T08:54:17.265Z,21.35
2022-08-20T08:56:43.972Z,21.32
2022-08-20T08:59:17.535Z,21.32
2022-08-20T09:01:53.707Z,21.61
2022-08-20T09:04:30.269Z,21.87
2022-08-20T09:06:57.355Z,22.02
2022-08-20T09:09:33.714Z,22.27
2022-08-20T09:12:09.823Z,22.03
2022-08-20T09:14:37.825Z,21.66
2022-08-20T09:17:05.395Z,21.76
2022-08-20T09:19:31.962Z,22.03
2022-08-20T09:21:58.489Z,21.99
2022-08-20T09:24:25.635Z,22.29
2022-08-20T09:26:51.996Z,21.95
2022-08-20T09:29:18.375Z,22.05
2022-08-20T09:31:45.190Z,21.85
2022-08-20T09:34:12.758Z,22.09
2022-08-20T09:36:39.140Z,21.97
2022-08-20T09:39:05.495Z,21.91
2022-08-20T09:41:33.682Z,22.07
2022-08-20T09:44:01.335Z,22.02
2022-08-20T09:46:27.822Z,21.89
2022-08-20T09:48:54.747Z,21.79
2022-08-20T09:51:21.673Z,21.85
2022-08-20T09:53:48.873Z,22.02
2022-08-20T09:56:15.464Z,22.17
2022-08-20T09:58:51.080Z,22.19
2022-08-20T10:01:20.027Z,22.11
2022-08-20T10:03:48.723Z,22.04
2022-08-20T10:06:20.101Z,22.30
2022-08-20T10:08:47.678Z,22.47
2022-08-20T10:11:14.083Z,22.44
2022-08-20T10:13:40.631Z,22.64
2022-08-20T10:16:07.186Z,22.69
2022-08-20T10:18:35.580Z,22.57
2022-08-20T10:21:02.090Z,22.69
2022-08-20T10:23:28.500Z,22.34
2022-08-20T10:25:54.919Z,22.07
2022-08-20T10:28:21.315Z,22.22
2022-08-20T10:30:47.760Z,22.51
2022-08-20T10:33:14.141Z,22.48
2022-08-20T10:35:40.521Z,22.75
2022-08-20T10:38:06.898Z,22.94
2022-08-20T10:40:33.409Z,22.73
2022-08-20T10:43:00.077Z,22.50
2022-08-20T10:45:26.454Z,22.53
2022-08-20T10:47:52.950Z,22.72
2022-08-20T10:50:20.005Z,22.70
2022-08-20T10:52:47.027Z,22.47
2022-08-20T10:55:13.741Z,22.41
2022-08-20T10:57:41.443Z,22.56
2022-08-20T11:00:12.041Z,22.84
2022-08-20T11:02:38.566Z,23.06
2022-08-20T11:05:06.706Z,23.40
2022-08-20T11:07:55.737Z,23.08
2022-08-20T11:10:26.783Z,23.02
2022-08-20T11:12:53.569Z,22.78
2022-08-20T11:15:20.195Z,22.89
2022-08-20T11:17:46.940Z,22.75
2022-08-20T11:20:15.924Z,22.81
2022-08-20T11:22:42.359Z,22.60
2022-08-20T11:25:09.322Z,22.50
2022-08-20T11:27:41.608Z,22.39
2022-08-20T11:30:18.414Z,22.66
2022-08-20T11:32:44.959Z,22.57
2022-08-20T11:35:40.630Z,22.66
2022-08-20T11:38:01.086Z,22.54
2022-08-20T11:40:29.259Z,22.41
2022-08-20T11:43:14.282Z,22.52
2022-08-20T11:45:41.735Z,22.71
2022-08-20T11:48:08.076Z,22.70
2022-08-20T11:50:34.499Z,22.52
2022-08-20T11:53:01.650Z,22.64
2022-08-20T11:55:30.761Z,22.50
2022-08-20T11:57:59.909Z,22.77
2022-08-20T12:00:32.220Z,22.84
2022-08-20T12:03:01.413Z,23.12
2022-08-20T12:05:29.679Z,23.38
2022-08-20T12:07:57.163Z,23.37
2022-08-20T12:10:25.964Z,23.23
2022-08-20T12:12:52.345Z,23.27
2022-08-20T12:15:19.794Z,23.57
2022-08-20T12:17:46.164Z,23.56
2022-08-20T12:20:14.285Z,23.59
2022-08-20T12:22:40.853Z,23.39
2022-08-20T12:25:08.471Z,23.35
2022-08-20T12:27:37.169Z,23.15
2022-08-20T12:30:13.472Z,23.35
2022-08-20T12:32:40.623Z,23.27
2022-08-20T12:35:08.745Z,23.63
2022-08-20T12:37:36.100Z,23.43
2022-08-20T12:40:06.427Z,23.80
2022-08-20T12:42:32.817Z,23.99
2022-08-20T12:45:00.185Z,23.83
2022-08-20T12:47:36.639Z,23.88
2022-08-20T12:50:07.636Z,23.73
2022-08-20T12:52:34.234Z,23.59
2022-08-20T12:55:02.030Z,23.40
2022-08-20T12:57:31.663Z,23.00
2022-08-20T13:00:01.120Z,22.87
2022-08-20T13:02:30.425Z,22.53
2022-08-20T13:04:58.352Z,22.69
2022-08-20T13:07:27.735Z,22.62
2022-08-20T13:09:54.169Z,22.42
2022-08-20T13:12:20.680Z,22.64
2022-08-20T13:14:47.020Z,22.84
2022-08-20T13:17:17.449Z,22.70
2022-08-20T13:19:45.204Z,22.81
2022-08-20T13:22:13.519Z,22.52
2022-08-20T13:24:39.992Z,22.81
2022-08-20T13:27:10.723Z,22.79
2022-08-20T13:29:37.973Z,22.88
2022-08-20T13:32:05.426Z,22.80
2022-08-20T13:34:31.877Z,22.91
2022-08-20T13:36:58.326Z,22.97
2022-08-20T13:39:24.769Z,23.24
2022-08-20T13:41:51.198Z,23.16
2022-08-20T13:44:18.238Z,22.95
2022-08-20T13:46:44.678Z,22.89
2022-08-20T13:49:11.075Z,22.91
2022-08-20T13:51:37.425Z,23.05
2022-08-20T13:54:03.923Z,22.87
2022-08-20T13:56:30.344Z,22.50
2022-08-20T13:58:56.701Z,22.43
2022-08-20T14:01:23.157Z,22.52
2022-08-20T14:03:49.624Z,22.77
2022-08-20T14:06:15.984Z,22.59
2022-08-20T14:08:42.428Z,22.66
2022-08-20T14:11:08.791Z,22.66
2022-08-20T14:13:40.366Z,22.67
2022-08-20T14:16:21.445Z,22.69
2022-08-20T14:18:53.690Z,22.69
2022-08-20T14:21:20.152Z,22.78
2022-08-20T14:23:46.471Z,22.82
2022-08-20T14:26:12.855Z,22.96
2022-08-20T14:28:39.335Z,22.77
2022-08-20T14:31:05.931Z,22.56
2022-08-20T14:33:32.427Z,22.75
2022-08-20T14:35:58.789Z,23.01
2022-08-20T14:38:25.298Z,23.31
2022-08-20T14:40:51.663Z,23.21
2022-08-20T14:43:20.686Z,22.99
2022-08-20T14:45:49.802Z,22.77
2022-08-20T14:48:16.198Z,22.75
2022-08-20T14:50:42.769Z,22.55
2022-08-20T14:53:09.255Z,22.60
2022-08-20T14:55:37.526Z,22.58
2022-08-20T14:58:09.824Z,22.70
2022-08-20T15:00:36.975Z,22.94
2022-08-20T15:03:03.406Z,22.87
2022-08-20T15:05:30.203Z,22.47
2022-08-20T15:07:57.842Z,22.56
2022-08-20T15:10:29.195Z,22.35
2022-08-20T15:12:55.759Z,22.46
2022-08-20T15:15:23.236Z,22.43
2022-08-20T15:17:52.980Z,21.96
2022-08-20T15:20:21.584Z,21.80
2022-08-20T15:22:49.556Z,21.83
2022-08-20T15:25:18.758Z,21.96
2022-08-20T15:27:45.898Z,22.04
2022-08-20T15:30:19.010Z,22.17
2022-08-20T15:32:45.849Z,22.20
2022-08-20T15:35:13.152Z,22.10
2022-08-20T15:37:45.087Z,22.03
2022-08-20T15:40:15.986Z,21.81
2022-08-20T15:42:43.136Z,21.79
2022-08-20T15:45:21.973Z,21.58
2022-08-20T15:48:18.016Z,21.57
2022-08-20T15:50:47.290Z,21.67
2022-08-20T15:53:51.364Z,21.59
2022-08-20T15:56:23.687Z,21.68
2022-08-20T15:58:59.029Z,21.81
2022-08-20T16:01:54.666Z,21.85
2022-08-20T16:04:45.600Z,21.63
2022-08-20T16:07:22.820Z,21.48
2022-08-20T16:10:03.421Z,21.62
2022-08-20T16:12:38.139Z,21.59
2022-08-20T16:15:11.670Z,21.33
2022-08-20T16:17:45.205Z,21.35
2022-08-20T16:20:35.629Z,21.15
2022-08-20T16:23:03.761Z,21.23
2022-08-20T16:25:38.922Z,21.23
2022-08-20T16:28:24.271Z,21.12
2022-08-20T16:30:59.353Z,21.28
2022-08-20T16:33:39.099Z,21.35
2022-08-20T16:36:17.644Z,21.04
2022-08-20T16:38:59.098Z,20.84
2022-08-20T16:41:34.721Z,20.84
2022-08-20T16:44:08.575Z,20.89
2022-08-20T16:46:40.383Z,20.93
2022-08-20T16:49:13.386Z,20.89
2022-08-20T16:51:41.349Z,20.69
2022-08-20T16:54:09.235Z,20.85
2022-08-20T16:56:49.892Z,20.75
2022-08-20T16:59:27.245Z,20.64
2022-08-20T17:02:20.971Z,20.61
2022-08-20T17:04:58.548Z,20.58
2022-08-20T17:07:43.305Z,20.62
2022-08-20T17:10:17.966Z,20.49
2022-08-20T17:12:45.112Z,20.43
2022-08-20T17:15:26.210Z,20.48
2022-08-20T17:17:55.601Z,20.50
2022-08-20T17:20:29.161Z,20.34
2022-08-20T17:23:10.997Z,20.37
2022-08-20T17:25:38.304Z,20.37
2022-08-20T17:28:21.530Z,20.33
2022-08-20T17:30:47.967Z,20.36
2022-08-20T17:33:36.510Z,20.28
2022-08-20T17:36:29.286Z,20.25
2022-08-20T17:39:01.001Z,20.13
2022-08-20T17:41:31.033Z,20.10
2022-08-20T17:44:07.368Z,20.07
2022-08-20T17:46:41.431Z,19.96
2022-08-20T17:49:11.340Z,19.93
2022-08-20T17:51:42.418Z,19.91
2022-08-20T17:54:25.828Z,20.00
2022-08-20T17:56:57.980Z,20.00
2022-08-20T18:00:00.708Z,20.03
2022-08-20T18:02:26.786Z,19.95
2022-08-20T18:04:55.260Z,19.88
2022-08-20T18:07:30.339Z,19.86
2022-08-20T18:10:03.074Z,19.88
2022-08-20T18:12:35.140Z,19.91
2022-08-20T18:15:21.247Z,19.77
2022-08-20T18:17:50.107Z,19.73
2022-08-20T18:20:41.400Z,19.57
2022-08-20T18:23:16.162Z,19.50
2022-08-20T18:25:49.621Z,19.47
2022-08-20T18:28:20.810Z,19.45
2022-08-20T18:31:00.380Z,19.40
2022-08-20T18:33:34.725Z,19.34
2022-08-20T18:36:19.501Z,19.22
2022-08-20T18:39:08.553Z,19.17
2022-08-20T18:41:40.138Z,19.11
2022-08-20T18:44:09.548Z,18.99
2022-08-20T18:46:38.514Z,18.85
2022-08-20T18:49:07.662Z,18.84
2022-08-20T18:51:50.555Z,18.88
2022-08-20T18:54:32.318Z,18.78
2022-08-20T18:57:24.656Z,18.62
2022-08-20T19:00:10.353Z,18.59
2022-08-20T19:02:39.295Z,18.48
2022-08-20T19:05:09.685Z,18.44
2022-08-20T19:07:43.247Z,18.45
2022-08-20T19:10:33.341Z,18.41
2022-08-20T19:13:15.906Z,18.31
2022-08-20T19:15:48.060Z,18.16
2022-08-20T19:18:30.271Z,18.08
2022-08-20T19:21:00.480Z,18.01
2022-08-20T19:23:29.747Z,17.92
2022-08-20T19:25:59.814Z,17.86
2022-08-20T19:28:58.387Z,17.82
2022-08-20T19:31:32.180Z,17.75
2022-08-20T19:34:21.772Z,17.71
2022-08-20T19:37:28.157Z,17.61
2022-08-20T19:39:51.723Z,17.55
2022-08-20T19:42:31.102Z,17.43
2022-08-20T19:45:05.962Z,17.40
2022-08-20T19:47:40.248Z,17.34
2022-08-20T19:50:26.270Z,17.29
2022-08-20T19:53:06.596Z,17.29
2022-08-20T19:55:36.988Z,17.24
2022-08-20T19:58:17.887Z,17.15
2022-08-20T20:00:53.934Z,17.10
2022-08-20T20:03:27.013Z,17.06
2022-08-20T20:06:31.120Z,17.05
2022-08-20T20:09:07.338Z,16.97
2022-08-20T20:11:40.986Z,16.82
2022-08-20T20:14:13.259Z,16.84
2022-08-20T20:16:40.965Z,16.77
2022-08-20T20:19:25.954Z,16.61
2022-08-20T20:22:07.610Z,16.47
2022-08-20T20:24:50.620Z,16.34
2022-08-20T20:27:26.208Z,16.33
2022-08-20T20:29:59.884Z,16.30
2022-08-20T20:32:27.649Z,16.33
2022-08-20T20:34:57.986Z,16.28
2022-08-20T20:37:50.088Z,16.25
2022-08-20T20:40:30.343Z,16.21
2022-08-20T20:43:09.276Z,16.17
2022-08-20T20:45:40.200Z,16.18
2022-08-20T20:48:21.767Z,16.23
2022-08-20T20:50:50.809Z,16.21
2022-08-20T20:53:50.839Z,16.05
2022-08-20T20:56:34.718Z,15.98
2022-08-20T20:59:06.586Z,15.83
2022-08-20T21:01:49.972Z,15.81
2022-08-20T21:04:18.454Z,15.85
2022-08-20T21:06:45.026Z,15.70
2022-08-20T21:09:11.887Z,15.60
2022-08-20T21:11:38.222Z,15.51
2022-08-20T21:14:04.704Z,15.37
2022-08-20T21:16:31.203Z,15.25
2022-08-20T21:18:58.238Z,15.22
2022-08-20T21:21:24.620Z,15.18
2022-08-20T21:23:50.986Z,15.07
2022-08-20T21:26:17.402Z,14.95
2022-08-20T21:28:43.842Z,14.90
2022-08-20T21:31:10.190Z,14.94
2022-08-20T21:33:36.540Z,15.08
2022-08-20T21:36:03.205Z,15.19
2022-08-20T21:38:29.816Z,15.25
2022-08-20T21:40:56.434Z,15.24
2022-08-20T21:43:25.258Z,15.17
2022-08-20T21:45:51.865Z,15.17
2022-08-20T21:48:18.658Z,15.09
2022-08-20T21:50:45.025Z,15.02
2022-08-20T21:53:13.172Z,14.74
2022-08-20T21:55:40.626Z,14.63
2022-08-20T21:58:08.390Z,14.39
2022-08-20T22:00:49.274Z,14.45
2022-08-20T22:03:16.449Z,14.53
2022-08-20T22:05:47.465Z,14.53
2022-08-20T22:08:13.904Z,14.59
2022-08-20T22:10:40.339Z,14.58
2022-08-20T22:13:07.151Z,14.64
2022-08-20T22:15:33.656Z,14.67
2022-08-20T22:18:00.039Z,14.70
2022-08-20T22:20:27.527Z,14.53
2022-08-20T22:22:54.149Z,14.53
2022-08-20T22:25:20.566Z,14.60
2022-08-20T22:27:46.923Z,14.55
2022-08-20T22:30:13.498Z,14.52
2022-08-20T22:32:51.573Z,14.37
2022-08-20T22:35:19.833Z,14.14
2022-08-20T22:37:46.322Z,14.04
2022-08-20T22:40:13.239Z,14.10
2022-08-20T22:42:39.638Z,14.05
2022-08-20T22:45:14.498Z,14.07
2022-08-20T22:47:43.027Z,14.22
2022-08-20T22:50:10.898Z,14.24
2022-08-20T22:52:38.909Z,14.17
2022-08-20T22:55:06.177Z,14.18
2022-08-20T22:57:34.198Z,14.20
2022-08-20T23:00:00.964Z,14.17
2022-08-20T23:02:27.607Z,14.03
2022-08-20T23:04:54.019Z,13.74
2022-08-20T23:07:20.762Z,13.65
2022-08-20T23:09:47.175Z,13.66
2022-08-20T23:12:13.564Z,13.61
2022-08-20T23:14:39.958Z,13.71
2022-08-20T23:17:14.047Z,13.69
2022-08-20T23:19:41.676Z,13.60
2022-08-20T23:22:08.585Z,13.61
2022-08-20T23:24:35.561Z,13.54
2022-08-20T23:27:02.343Z,13.42
2022-08-20T23:29:29.026Z,13.30
2022-08-20T23:31:56.649Z,13.32
2022-08-20T23:34:24.224Z,13.42
2022-08-20T23:36:52.299Z,13.27
2022-08-20T23:39:19.478Z,13.41
2022-08-20T23:41:47.524Z,13.38
2022-08-20T23:44:25.885Z,13.27
2022-08-20T23:46:57.085Z,13.09
2022-08-20T23:49:23.560Z,13.13
2022-08-20T23:51:49.942Z,13.12
2022-08-20T23:54:16.342Z,13.17
2022-08-20T23:56:42.744Z,13.27
2022-08-20T23:59:09.271Z,13.35
